createdAt,value
2018-06-17T00:00:17.696Z,14.77
2018-06-17T00:02:46.498Z,14.61
2018-06-17T00:05:15.287Z,14.55
2018-06-17T00:07:44.288Z,14.65
2018-06-17T00:10:13.078Z,14.52
2018-06-17T00:12:41.857Z,14.04
2018-06-17T00:15:10.677Z,14.44
2018-06-17T00:17:39.455Z,14.33
2018-06-17T00:20:08.237Z,14.12
2018-06-17T00:22:37.045Z,13.99
2018-06-17T00:25:05.843Z,14.04
2018-06-17T00:27:34.623Z,14.21
2018-06-17T00:30:03.469Z,13.96
2018-06-17T00:32:32.261Z,13.82
2018-06-17T00:35:01.047Z,14.18
2018-06-17T00:37:29.956Z,13.95
2018-06-17T00:39:58.745Z,14.22
2018-06-17T00:42:27.525Z,13.92
2018-06-17T00:44:56.338Z,14.02
2018-06-17T00:47:25.121Z,13.53
2018-06-17T00:49:53.950Z,13.43
2018-06-17T00:52:22.730Z,13.84
2018-06-17T00:54:51.506Z,13.51
2018-06-17T00:57:31.326Z,13.85
2018-06-17T01:00:00.076Z,13.94
2018-06-17T01:02:28.844Z,13.55
2018-06-17T01:04:57.649Z,12.83
2018-06-17T01:07:26.461Z,13.57
2018-06-17T01:09:55.273Z,13.76
2018-06-17T01:12:24.145Z,13.78
2018-06-17T01:14:52.932Z,13.42
2018-06-17T01:17:21.721Z,13.11
2018-06-17T01:19:50.541Z,13.52
2018-06-17T01:22:19.353Z,13.46
2018-06-17T01:24:48.135Z,13.56
2018-06-17T01:27:16.937Z,13.66
2018-06-17T01:29:45.709Z,13.60
2018-06-17T01:32:14.478Z,12.96
2018-06-17T01:34:43.236Z,12.97
2018-06-17T01:37:11.997Z,12.63
2018-06-17T01:39:40.878Z,12.86
2018-06-17T01:42:09.657Z,13.39
2018-06-17T01:44:38.461Z,12.78
2018-06-17T01:47:07.213Z,12.60
2018-06-17T01:49:36.002Z,12.98
2018-06-17T01:52:04.757Z,12.95
2018-06-17T01:54:33.526Z,13.21
2018-06-17T01:57:02.317Z,13.43
2018-06-17T01:59:31.074Z,13.38
2018-06-17T02:01:59.841Z,13.05
2018-06-17T02:04:33.605Z,12.65
2018-06-17T02:07:07.534Z,12.66
2018-06-17T02:09:41.429Z,13.34
2018-06-17T02:12:15.471Z,13.38
2018-06-17T02:15:00.532Z,13.44
2018-06-17T02:17:29.557Z,13.50
2018-06-17T02:19:58.322Z,13.51
2018-06-17T02:22:27.126Z,12.94
2018-06-17T02:24:55.909Z,13.34
2018-06-17T02:27:24.676Z,13.53
2018-06-17T02:29:53.451Z,13.10
2018-06-17T02:32:22.215Z,12.90
2018-06-17T02:34:50.973Z,13.19
2018-06-17T02:37:19.742Z,13.31
2018-06-17T02:39:48.505Z,13.11
2018-06-17T02:42:17.353Z,13.02
2018-06-17T02:44:49.530Z,13.02
2018-06-17T02:47:23.498Z,13.13
2018-06-17T02:49:52.266Z,13.12
2018-06-17T02:52:26.110Z,13.08
2018-06-17T02:54:54.886Z,13.15
2018-06-17T02:57:23.632Z,13.10
2018-06-17T02:59:52.417Z,13.00
2018-06-17T03:02:21.170Z,12.99
2018-06-17T03:04:49.927Z,13.03
2018-06-17T03:07:18.714Z,13.03
2018-06-17T03:09:47.670Z,13.35
2018-06-17T03:12:16.439Z,13.17
2018-06-17T03:14:45.212Z,13.65
2018-06-17T03:17:14.022Z,13.62
2018-06-17T03:19:42.776Z,13.68
2018-06-17T03:22:11.530Z,13.53
2018-06-17T03:24:45.542Z,13.58
2018-06-17T03:27:19.561Z,13.65
2018-06-17T03:29:53.577Z,13.57
2018-06-17T03:32:27.520Z,13.45
2018-06-17T03:35:01.484Z,13.49
2018-06-17T03:37:30.283Z,13.54
2018-06-17T03:39:59.077Z,13.53
2018-06-17T03:42:27.866Z,13.62
2018-06-17T03:44:56.650Z,13.68
2018-06-17T03:47:25.404Z,13.77
2018-06-17T03:49:54.243Z,13.91
2018-06-17T03:52:23.045Z,14.07
2018-06-17T03:54:51.818Z,14.01
2018-06-17T03:57:20.650Z,14.05
2018-06-17T03:59:49.424Z,14.00
2018-06-17T04:02:19.198Z,14.07
2018-06-17T04:04:53.152Z,14.22
2018-06-17T04:07:21.906Z,14.43
2018-06-17T04:09:50.690Z,14.43
2018-06-17T04:12:19.505Z,14.28
2018-06-17T04:14:48.279Z,14.26
2018-06-17T04:17:17.054Z,14.33
2018-06-17T04:19:46.674Z,14.51
2018-06-17T04:22:15.461Z,14.87
2018-06-17T04:24:44.290Z,15.08
2018-06-17T04:27:13.119Z,15.08
2018-06-17T04:29:41.882Z,15.11
2018-06-17T04:32:10.650Z,15.20
2018-06-17T04:34:39.477Z,15.20
2018-06-17T04:37:08.271Z,13.83
2018-06-17T04:39:37.029Z,15.14
2018-06-17T04:42:05.885Z,15.01
2018-06-17T04:44:34.718Z,15.21
2018-06-17T04:47:03.564Z,15.16
2018-06-17T04:49:32.402Z,15.31
2018-06-17T04:52:01.200Z,15.31
2018-06-17T04:54:30.000Z,15.34
2018-06-17T04:56:58.813Z,15.36
2018-06-17T04:59:27.569Z,15.34
2018-06-17T05:01:56.383Z,15.36
2018-06-17T05:04:25.202Z,15.42
2018-06-17T05:06:54.018Z,13.71
2018-06-17T05:09:22.789Z,15.44
2018-06-17T05:11:51.625Z,15.44
2018-06-17T05:14:20.488Z,15.35
2018-06-17T05:16:49.256Z,15.29
2018-06-17T05:19:18.063Z,15.33
2018-06-17T05:21:46.902Z,15.42
2018-06-17T05:24:15.768Z,15.38
2018-06-17T05:26:44.549Z,15.67
2018-06-17T05:29:13.304Z,15.85
2018-06-17T05:31:42.089Z,15.84
2018-06-17T05:34:10.893Z,15.93
2018-06-17T05:36:39.720Z,16.02
2018-06-17T05:39:10.886Z,15.81
2018-06-17T05:41:39.657Z,15.99
2018-06-17T05:44:08.478Z,16.05
2018-06-17T05:46:37.705Z,16.07
2018-06-17T05:49:06.796Z,16.06
2018-06-17T05:51:35.733Z,16.07
2018-06-17T05:54:04.526Z,16.11
2018-06-17T05:56:33.333Z,16.12
2018-06-17T05:59:02.079Z,16.12
2018-06-17T06:01:30.832Z,16.12
2018-06-17T06:03:59.699Z,16.15
2018-06-17T06:06:28.493Z,16.24
2018-06-17T06:08:57.272Z,16.28
2018-06-17T06:11:26.076Z,16.31
2018-06-17T06:13:54.925Z,16.37
2018-06-17T06:16:23.754Z,16.42
2018-06-17T06:18:52.711Z,16.46
2018-06-17T06:21:22.118Z,16.46
2018-06-17T06:23:50.954Z,16.45
2018-06-17T06:26:19.771Z,16.48
2018-06-17T06:28:48.570Z,16.45
2018-06-17T06:31:17.407Z,16.44
2018-06-17T06:33:46.886Z,16.43
2018-06-17T06:36:15.646Z,16.46
2018-06-17T06:38:44.422Z,16.50
2018-06-17T06:41:13.253Z,16.51
2018-06-17T06:43:42.031Z,16.50
2018-06-17T06:46:10.807Z,16.48
2018-06-17T06:48:39.875Z,16.49
2018-06-17T06:51:08.823Z,16.45
2018-06-17T06:53:37.667Z,16.45
2018-06-17T06:56:07.086Z,16.19
2018-06-17T06:58:35.910Z,16.33
2018-06-17T07:01:04.757Z,16.37
2018-06-17T07:03:44.581Z,16.40
2018-06-17T07:06:24.432Z,16.43
2018-06-17T07:09:05.164Z,16.44
2018-06-17T07:11:34.142Z,16.40
2018-06-17T07:14:02.907Z,16.42
2018-06-17T07:16:42.728Z,16.38
2018-06-17T07:19:11.530Z,16.42
2018-06-17T07:21:40.330Z,16.41
2018-06-17T07:24:09.134Z,16.41
2018-06-17T07:26:49.829Z,16.43
2018-06-17T07:29:42.261Z,16.43
2018-06-17T07:32:11.041Z,16.44
2018-06-17T07:34:39.872Z,16.43
2018-06-17T07:37:08.798Z,16.43
2018-06-17T07:41:46.385Z,16.45
2018-06-17T07:44:15.248Z,16.42
2018-06-17T07:46:44.023Z,16.40
2018-06-17T07:49:40.435Z,16.44
2018-06-17T07:52:20.818Z,16.47
2018-06-17T07:54:49.858Z,16.50
2018-06-17T07:57:20.786Z,16.50
2018-06-17T07:59:49.557Z,16.55
2018-06-17T08:02:18.705Z,16.58
2018-06-17T08:04:47.560Z,16.57
2018-06-17T08:07:16.310Z,16.59
2018-06-17T08:09:45.175Z,16.56
2018-06-17T08:12:14.249Z,16.57
2018-06-17T08:14:43.128Z,16.59
2018-06-17T08:17:12.065Z,16.63
2018-06-17T08:19:41.463Z,16.71
2018-06-17T08:22:10.269Z,16.78
2018-06-17T08:24:39.163Z,16.78
2018-06-17T08:27:07.986Z,16.81
2018-06-17T08:29:36.762Z,16.82
2018-06-17T08:32:05.590Z,16.84
2018-06-17T08:34:34.400Z,16.92
2018-06-17T08:37:03.184Z,16.94
2018-06-17T08:39:31.986Z,16.95
2018-06-17T08:42:00.834Z,17.01
2018-06-17T08:44:29.614Z,17.07
2018-06-17T08:46:58.426Z,17.14
2018-06-17T08:49:27.220Z,17.12
2018-06-17T08:51:56.026Z,17.15
2018-06-17T08:54:24.798Z,17.15
2018-06-17T08:56:53.594Z,17.19
2018-06-17T08:59:22.396Z,17.12
2018-06-17T09:01:51.163Z,17.16
2018-06-17T09:04:19.976Z,17.19
2018-06-17T09:06:48.785Z,16.98
2018-06-17T09:09:17.601Z,17.27
2018-06-17T09:11:46.406Z,17.32
2018-06-17T09:14:15.226Z,17.33
2018-06-17T09:16:44.035Z,17.33
2018-06-17T09:19:12.941Z,17.38
2018-06-17T09:21:41.742Z,17.41
2018-06-17T09:24:10.536Z,17.42
2018-06-17T09:26:39.317Z,17.43
2018-06-17T09:29:08.138Z,17.47
2018-06-17T09:31:37.001Z,17.52
2018-06-17T09:34:05.969Z,17.56
2018-06-17T09:36:34.746Z,17.63
2018-06-17T09:39:04.382Z,17.61
2018-06-17T09:41:33.619Z,17.67
2018-06-17T09:44:02.479Z,17.70
2018-06-17T09:46:31.307Z,17.71
2018-06-17T09:49:00.130Z,17.72
2018-06-17T09:51:28.922Z,17.71
2018-06-17T09:53:57.904Z,17.70
2018-06-17T09:56:26.762Z,17.70
2018-06-17T09:58:55.555Z,17.60
2018-06-17T10:01:24.339Z,17.67
2018-06-17T10:03:53.157Z,17.70
2018-06-17T10:06:21.941Z,17.75
2018-06-17T10:08:50.738Z,17.74
2018-06-17T10:11:19.534Z,17.76
2018-06-17T10:13:48.306Z,17.75
2018-06-17T10:16:17.221Z,17.68
2018-06-17T10:18:46.038Z,17.79
2018-06-17T10:21:14.875Z,17.84
2018-06-17T10:23:43.813Z,17.83
2018-06-17T10:26:12.606Z,17.86
2018-06-17T10:28:41.435Z,17.83
2018-06-17T10:31:10.263Z,17.87
2018-06-17T10:33:39.093Z,17.90
2018-06-17T10:36:07.917Z,17.93
2018-06-17T10:38:36.745Z,18.00
2018-06-17T10:41:05.566Z,18.10
2018-06-17T10:43:34.441Z,18.16
2018-06-17T10:46:03.240Z,18.09
2018-06-17T10:48:32.009Z,18.21
2018-06-17T10:51:00.791Z,18.21
2018-06-17T10:53:29.597Z,18.21
2018-06-17T10:55:58.475Z,18.24
2018-06-17T10:58:27.181Z,18.29
2018-06-17T11:00:55.949Z,18.32
2018-06-17T11:03:24.746Z,18.35
2018-06-17T11:05:53.559Z,18.35
2018-06-17T11:08:22.361Z,18.34
2018-06-17T11:10:51.145Z,18.37
2018-06-17T11:13:19.978Z,18.40
2018-06-17T11:15:48.773Z,18.47
2018-06-17T11:18:17.569Z,18.50
2018-06-17T11:20:46.369Z,18.53
2018-06-17T11:23:15.233Z,18.60
2018-06-17T11:25:44.010Z,18.65
2018-06-17T11:28:12.821Z,18.70
2018-06-17T11:30:41.602Z,18.68
2018-06-17T11:33:10.405Z,17.95
2018-06-17T11:35:39.225Z,18.70
2018-06-17T11:38:08.030Z,18.61
2018-06-17T11:40:36.821Z,18.60
2018-06-17T11:43:05.593Z,18.71
2018-06-17T11:45:34.375Z,18.70
2018-06-17T11:48:03.142Z,18.73
2018-06-17T11:50:31.906Z,18.73
2018-06-17T11:53:00.937Z,18.74
2018-06-17T11:55:29.714Z,18.77
2018-06-17T11:57:58.499Z,18.76
2018-06-17T12:00:27.283Z,18.71
2018-06-17T12:02:56.067Z,18.63
2018-06-17T12:05:24.914Z,18.57
2018-06-17T12:07:53.726Z,18.60
2018-06-17T12:10:22.526Z,18.52
2018-06-17T12:12:51.278Z,18.42
2018-06-17T12:15:20.097Z,18.48
2018-06-17T12:17:48.922Z,18.48
2018-06-17T12:20:17.671Z,18.49
2018-06-17T12:22:46.473Z,18.50
2018-06-17T12:25:15.253Z,18.49
2018-06-17T12:27:44.007Z,18.30
2018-06-17T12:30:12.781Z,18.18
2018-06-17T12:32:41.551Z,18.27
2018-06-17T12:35:10.372Z,18.21
2018-06-17T12:37:39.174Z,17.99
2018-06-17T12:40:07.961Z,18.11
2018-06-17T12:42:36.738Z,18.26
2018-06-17T12:45:05.647Z,18.14
2018-06-17T12:47:34.455Z,18.04
2018-06-17T12:50:03.338Z,18.15
2018-06-17T12:52:32.129Z,17.96
2018-06-17T12:55:00.929Z,18.18
2018-06-17T12:57:29.717Z,18.20
2018-06-17T12:59:58.496Z,18.04
2018-06-17T13:02:27.271Z,17.94
2018-06-17T13:04:56.024Z,18.14
2018-06-17T13:07:24.813Z,18.11
2018-06-17T13:09:53.577Z,17.92
2018-06-17T13:12:22.345Z,17.94
2018-06-17T13:14:51.162Z,18.17
2018-06-17T13:17:20.035Z,18.23
2018-06-17T13:19:48.821Z,18.18
2018-06-17T13:22:17.660Z,18.22
2018-06-17T13:24:46.458Z,18.17
2018-06-17T13:27:15.275Z,18.20
2018-06-17T13:29:44.096Z,18.19
2018-06-17T13:32:12.949Z,18.24
2018-06-17T13:34:41.769Z,18.12
2018-06-17T13:37:10.643Z,18.14
2018-06-17T13:39:39.432Z,17.94
2018-06-17T13:42:08.207Z,18.06
2018-06-17T13:44:37.509Z,17.99
2018-06-17T13:47:06.570Z,17.83
2018-06-17T13:49:35.801Z,17.72
2018-06-17T13:52:04.610Z,17.76
2018-06-17T13:54:33.413Z,18.02
2018-06-17T13:57:02.171Z,18.06
2018-06-17T13:59:31.006Z,17.98
2018-06-17T14:01:59.785Z,18.04
2018-06-17T14:04:28.601Z,17.98
2018-06-17T14:06:57.408Z,17.70
2018-06-17T14:09:26.174Z,17.93
2018-06-17T14:11:55.070Z,17.89
2018-06-17T14:14:23.850Z,17.98
2018-06-17T14:16:52.753Z,17.93
2018-06-17T14:19:21.580Z,17.88
2018-06-17T14:21:50.420Z,17.67
2018-06-17T14:24:19.254Z,17.82
2018-06-17T14:26:48.030Z,17.83
2018-06-17T14:29:16.812Z,17.67
2018-06-17T14:31:45.641Z,17.75
2018-06-17T14:34:14.432Z,17.80
2018-06-17T14:36:43.273Z,17.75
2018-06-17T14:39:13.121Z,17.52
2018-06-17T14:41:41.958Z,17.77
2018-06-17T14:44:16.009Z,17.83
2018-06-17T14:47:49.636Z,17.69
2018-06-17T14:50:23.666Z,17.46
2018-06-17T14:52:57.510Z,17.20
2018-06-17T14:55:26.269Z,17.05
2018-06-17T14:57:55.087Z,17.18
2018-06-17T15:00:23.891Z,17.09
2018-06-17T15:02:52.765Z,17.36
2018-06-17T15:05:21.575Z,17.44
2018-06-17T15:07:50.374Z,17.56
2018-06-17T15:10:19.245Z,17.68
2018-06-17T15:12:48.079Z,17.52
2018-06-17T15:15:16.958Z,17.62
2018-06-17T15:17:45.829Z,17.64
2018-06-17T15:20:14.617Z,17.59
2018-06-17T15:22:43.410Z,17.54
2018-06-17T15:25:12.195Z,17.21
2018-06-17T15:27:41.028Z,17.58
2018-06-17T15:30:09.923Z,17.55
2018-06-17T15:32:43.939Z,17.40
2018-06-17T15:35:17.897Z,17.48
2018-06-17T15:37:51.828Z,17.64
2018-06-17T15:40:24.851Z,17.52
2018-06-17T15:42:53.707Z,17.14
2018-06-17T15:45:22.672Z,17.32
2018-06-17T15:47:51.778Z,17.54
2018-06-17T15:50:21.730Z,17.56
2018-06-17T15:52:50.798Z,17.55
2018-06-17T15:55:19.870Z,17.55
2018-06-17T15:57:49.165Z,17.58
2018-06-17T16:00:18.129Z,17.54
2018-06-17T16:02:46.966Z,17.47
2018-06-17T16:05:16.465Z,17.48
2018-06-17T16:07:45.652Z,17.51
2018-06-17T16:10:14.448Z,17.36
2018-06-17T16:12:48.397Z,17.26
2018-06-17T16:15:22.292Z,17.37
2018-06-17T16:17:56.290Z,17.37
2018-06-17T16:20:30.244Z,17.36
2018-06-17T16:22:59.301Z,17.36
2018-06-17T16:25:28.117Z,17.33
2018-06-17T16:27:56.894Z,17.31
2018-06-17T16:30:25.750Z,17.30
2018-06-17T16:32:55.482Z,17.28
2018-06-17T16:35:24.376Z,17.31
2018-06-17T16:37:53.246Z,17.27
2018-06-17T16:40:22.038Z,17.22
2018-06-17T16:42:50.833Z,17.24
2018-06-17T16:45:19.765Z,17.23
2018-06-17T16:47:48.589Z,17.02
2018-06-17T16:50:17.410Z,17.09
2018-06-17T16:52:51.464Z,17.11
2018-06-17T16:55:25.537Z,17.09
2018-06-17T16:57:59.473Z,17.00
2018-06-17T17:00:28.506Z,17.03
2018-06-17T17:02:57.363Z,16.93
2018-06-17T17:05:29.221Z,16.87
2018-06-17T17:07:58.027Z,16.85
2018-06-17T17:10:26.822Z,16.83
2018-06-17T17:12:55.638Z,16.64
2018-06-17T17:15:24.427Z,16.72
2018-06-17T17:17:53.190Z,16.72
2018-06-17T17:20:22.016Z,16.58
2018-06-17T17:22:50.826Z,16.62
2018-06-17T17:25:19.601Z,16.60
2018-06-17T17:27:48.452Z,16.12
2018-06-17T17:30:17.256Z,16.38
2018-06-17T17:33:48.967Z,16.38
2018-06-17T17:36:22.821Z,16.29
2018-06-17T17:38:57.046Z,16.27
2018-06-17T17:41:26.198Z,16.37
2018-06-17T17:43:54.992Z,16.15
2018-06-17T17:46:28.834Z,16.18
2018-06-17T17:48:57.593Z,16.25
2018-06-17T17:51:26.559Z,16.26
2018-06-17T17:53:55.382Z,16.18
2018-06-17T17:56:24.692Z,16.07
2018-06-17T17:58:53.874Z,16.09
2018-06-17T18:01:22.968Z,16.14
2018-06-17T18:03:51.828Z,15.88
2018-06-17T18:06:20.963Z,16.00
2018-06-17T18:08:49.854Z,16.02
2018-06-17T18:11:18.656Z,15.50
2018-06-17T18:13:48.225Z,15.63
2018-06-17T18:16:17.815Z,15.42
2018-06-17T18:18:46.830Z,15.39
2018-06-17T18:21:16.175Z,15.58
2018-06-17T18:23:45.391Z,15.31
2018-06-17T18:26:19.711Z,15.49
2018-06-17T18:28:53.846Z,15.35
2018-06-17T18:31:22.631Z,14.93
2018-06-17T18:33:56.578Z,14.83
2018-06-17T18:36:25.391Z,15.30
2018-06-17T18:38:54.967Z,15.25
2018-06-17T18:41:23.772Z,15.51
2018-06-17T18:43:52.574Z,15.42
2018-06-17T18:46:21.385Z,15.50
2018-06-17T18:48:50.185Z,15.38
2018-06-17T18:51:18.978Z,15.26
2018-06-17T18:53:47.758Z,15.05
2018-06-17T18:56:16.520Z,14.54
2018-06-17T18:58:45.309Z,15.00
2018-06-17T19:01:14.094Z,15.15
2018-06-17T19:03:42.915Z,14.65
2018-06-17T19:06:11.693Z,14.54
2018-06-17T19:08:45.708Z,14.73
2018-06-17T19:11:19.593Z,14.79
2018-06-17T19:13:53.698Z,14.95
2018-06-17T19:16:27.649Z,14.87
2018-06-17T19:18:56.628Z,14.69
2018-06-17T19:21:25.405Z,15.12
2018-06-17T19:23:54.162Z,14.78
2018-06-17T19:26:22.993Z,14.53
2018-06-17T19:28:51.795Z,14.26
2018-06-17T19:31:20.593Z,14.56
2018-06-17T19:33:49.499Z,14.78
2018-06-17T19:36:18.281Z,14.95
2018-06-17T19:38:47.087Z,14.63
2018-06-17T19:41:16.181Z,14.65
2018-06-17T19:43:44.974Z,14.50
2018-06-17T19:46:13.760Z,14.26
2018-06-17T19:48:42.789Z,14.27
2018-06-17T19:51:16.786Z,14.74
2018-06-17T19:53:50.770Z,14.61
2018-06-17T19:56:24.733Z,14.73
2018-06-17T19:58:58.667Z,14.61
2018-06-17T20:01:27.462Z,14.03
2018-06-17T20:03:56.246Z,13.90
2018-06-17T20:06:25.364Z,14.04
2018-06-17T20:08:53.961Z,14.43
2018-06-17T20:11:22.755Z,14.33
2018-06-17T20:13:51.558Z,14.59
2018-06-17T20:16:20.368Z,14.61
2018-06-17T20:18:49.178Z,14.31
2018-06-17T20:21:17.970Z,14.55
2018-06-17T20:23:46.750Z,14.65
2018-06-17T20:26:15.577Z,14.63
2018-06-17T20:28:44.374Z,14.61
2018-06-17T20:31:13.281Z,14.13
2018-06-17T20:33:47.298Z,14.39
2018-06-17T20:36:21.185Z,14.55
2018-06-17T20:38:55.227Z,14.25
2018-06-17T20:41:29.186Z,14.48
2018-06-17T20:43:58.078Z,14.18
2018-06-17T20:46:26.858Z,14.51
2018-06-17T20:48:55.691Z,14.23
2018-06-17T20:51:24.474Z,13.81
2018-06-17T20:53:53.314Z,14.25
2018-06-17T20:56:22.077Z,14.22
2018-06-17T20:58:50.895Z,14.17
2018-06-17T21:01:19.718Z,14.30
2018-06-17T21:03:48.517Z,13.94
2018-06-17T21:06:17.331Z,14.25
2018-06-17T21:08:46.096Z,14.18
2018-06-17T21:11:14.862Z,13.82
2018-06-17T21:13:43.672Z,14.03
2018-06-17T21:16:12.458Z,13.68
2018-06-17T21:18:46.397Z,14.15
2018-06-17T21:21:20.357Z,14.30
2018-06-17T21:23:54.309Z,14.29
2018-06-17T21:26:28.265Z,14.32
2018-06-17T21:28:57.041Z,13.83
2018-06-17T21:31:25.831Z,14.14
2018-06-17T21:33:54.653Z,13.92
2018-06-17T21:36:23.423Z,14.20
2018-06-17T21:38:52.195Z,13.97
2018-06-17T21:41:20.981Z,13.90
2018-06-17T21:43:49.777Z,14.08
2018-06-17T21:46:18.542Z,13.85
2018-06-17T21:48:47.346Z,13.99
2018-06-17T21:51:16.177Z,14.04
2018-06-17T21:53:44.977Z,13.81
2018-06-17T21:56:13.761Z,13.80
2018-06-17T21:58:48.962Z,13.85
2018-06-17T22:01:19.265Z,13.77
2018-06-17T22:03:48.077Z,14.03
2018-06-17T22:06:16.840Z,13.89
2018-06-17T22:08:50.747Z,13.75
2018-06-17T22:11:24.697Z,13.72
2018-06-17T22:13:58.512Z,13.83
2018-06-17T22:16:32.475Z,13.77
2018-06-17T22:19:01.314Z,13.79
2018-06-17T22:21:30.097Z,13.84
2018-06-17T22:23:58.925Z,13.96
2018-06-17T22:26:27.723Z,13.88
2018-06-17T22:28:56.647Z,13.68
2018-06-17T22:31:25.450Z,13.91
2018-06-17T22:33:54.623Z,13.80
2018-06-17T22:36:23.405Z,13.53
2018-06-17T22:38:52.235Z,13.61
2018-06-17T22:41:21.090Z,14.00
2018-06-17T22:43:49.871Z,14.08
2018-06-17T22:46:18.652Z,13.88
2018-06-17T22:48:47.418Z,13.73
2018-06-17T22:51:16.194Z,13.73
2018-06-17T22:53:55.947Z,13.57
2018-06-17T22:56:29.841Z,13.67
2018-06-17T22:59:03.832Z,13.61
2018-06-17T23:01:37.774Z,13.84
2018-06-17T23:04:11.720Z,13.80
2018-06-17T23:06:45.567Z,13.89
2018-06-17T23:09:19.655Z,13.61
2018-06-17T23:11:48.466Z,13.74
2018-06-17T23:14:17.265Z,13.69
2018-06-17T23:16:46.065Z,13.80
2018-06-17T23:19:14.842Z,13.68
2018-06-17T23:21:43.651Z,13.81
2018-06-17T23:24:12.435Z,13.65
2018-06-17T23:26:41.221Z,13.63
2018-06-17T23:29:10.018Z,13.85
2018-06-17T23:31:38.874Z,13.59
2018-06-17T23:34:07.669Z,13.62
2018-06-17T23:36:36.554Z,13.83
2018-06-17T23:39:07.990Z,13.68
2018-06-17T23:41:36.795Z,13.65
2018-06-17T23:44:05.686Z,13.60
2018-06-17T23:46:39.623Z,13.72
2018-06-17T23:49:13.490Z,13.66
2018-06-17T23:51:47.679Z,13.81
2018-06-17T23:54:21.550Z,13.73
2018-06-17T23:56:50.374Z,13.71
2018-06-17T23:59:19.174Z,13.96
